Time;durP1;ratioP1;P1;durP2;ratioP2;P2;SDS_P1;SDS_P2;PMS_P1;PMS_P2;Temp;Humidity;BMP_temperature;BMP_pressure;BME280_temperature;BME280_humidity;BME280_pressure;Samples;Min_cycle;Max_cycle;Signal;HPM_P1;HPM_P2
2021/06/04 00:00:16;;;;;;;1.60;1.45;;;;;;;19.68;51.58;101821.28;1756221;82;21687;-49
2021/06/04 00:02:43;;;;;;;2.12;1.62;;;;;;;19.66;51.75;101824.45;1662858;85;21070;-49
2021/06/04 00:05:11;;;;;;;2.47;1.60;;;;;;;19.67;51.73;101827.47;1662473;86;21514;-48
2021/06/04 00:07:39;;;;;;;2.30;2.10;;;;;;;19.68;51.68;101826.56;1662852;86;21554;-49
2021/06/04 00:10:14;;;;;;;2.15;1.50;;;;;;;19.68;51.64;101831.84;1663930;85;21545;-48
2021/06/04 00:12:41;;;;;;;2.55;1.50;;;;;;;19.68;51.77;101826.56;1690513;85;21054;-49
2021/06/04 00:15:14;;;;;;;2.72;1.70;;;;;;;19.69;51.61;101828.27;1689898;85;21586;-48
2021/06/04 00:17:43;;;;;;;4.40;1.98;;;;;;;19.70;51.76;101827.36;1690221;85;21030;-49
2021/06/04 00:20:21;;;;;;;4.10;2.17;;;;;;;19.68;51.67;101826.56;1689976;85;21089;-49
2021/06/04 00:22:48;;;;;;;2.75;1.85;;;;;;;19.67;51.70;101824.83;1660441;86;21050;-49
2021/06/04 00:25:17;;;;;;;2.02;1.50;;;;;;;19.67;51.88;101827.47;1661764;86;21597;-49
2021/06/04 00:27:43;;;;;;;5.45;1.80;;;;;;;19.65;51.87;101829.31;1662157;86;21022;-50
2021/06/04 00:30:11;;;;;;;3.60;1.70;;;;;;;19.66;51.99;101831.88;1661984;86;21110;-49
2021/06/04 00:32:38;;;;;;;2.60;1.62;;;;;;;19.64;52.14;101826.30;1662066;86;21018;-49
2021/06/04 00:35:07;;;;;;;2.58;1.80;;;;;;;19.64;52.35;101835.53;1662160;86;21022;-49
2021/06/04 00:37:34;;;;;;;3.67;1.90;;;;;;;19.63;52.27;101835.12;1656283;86;21062;-49
2021/06/04 00:40:05;;;;;;;2.00;1.70;;;;;;;19.61;52.47;101833.01;1661857;86;21158;-49
2021/06/04 00:42:34;;;;;;;3.65;2.08;;;;;;;19.61;52.62;101825.09;1662428;86;21070;-49
2021/06/04 00:45:06;;;;;;;3.70;2.00;;;;;;;19.60;52.73;101831.31;1661420;86;21035;-49
2021/06/04 00:47:33;;;;;;;4.67;1.60;;;;;;;19.59;52.50;101826.94;1662084;86;21061;-49
2021/06/04 00:50:00;;;;;;;3.40;1.85;;;;;;;19.62;52.22;101826.83;1662039;86;21557;-48
2021/06/04 00:52:30;;;;;;;1.90;1.70;;;;;;;19.61;52.15;101822.45;1662105;86;21019;-49
2021/06/04 00:54:59;;;;;;;2.52;1.90;;;;;;;19.63;52.21;101821.47;1624833;86;21058;-49
2021/06/04 00:57:28;;;;;;;3.65;2.05;;;;;;;19.64;52.33;101822.34;1661971;86;21094;-49
2021/06/04 01:00:03;;;;;;;2.35;1.70;;;;;;;19.66;52.13;101824.45;1662101;86;21046;-49
2021/06/04 01:02:32;;;;;;;2.10;1.90;;;;;;;19.70;52.03;101824.72;1648912;86;21522;-48
2021/06/04 01:05:00;;;;;;;3.50;1.80;;;;;;;19.74;51.96;101823.66;1643307;83;21525;-49
2021/06/04 01:07:42;;;;;;;1.72;1.62;;;;;;;19.75;51.90;101822.72;1714757;83;21085;-49
2021/06/04 01:10:34;;;;;;;1.70;1.60;;;;;;;19.75;51.81;101825.36;1707316;83;21549;-49
2021/06/04 01:13:17;;;;;;;5.40;2.05;;;;;;;19.72;51.81;101826.34;1683315;85;21015;-49
2021/06/04 01:16:20;;;;;;;2.35;1.92;;;;;;;19.68;51.92;101824.75;1720960;83;21086;-49
2021/06/04 01:19:35;;;;;;;2.17;1.85;;;;;;;19.69;51.91;101828.27;1694010;83;21062;-50
2021/06/04 01:22:06;;;;;;;1.90;1.67;;;;;;;19.67;51.83;101829.66;1726555;82;21082;-50
2021/06/04 01:24:54;;;;;;;1.87;1.70;;;;;;;19.61;52.06;101823.31;1666118;86;21082;-50
2021/06/04 01:27:30;;;;;;;3.95;2.35;;;;;;;19.59;52.29;101831.77;1723720;82;21022;-50
2021/06/04 01:30:15;;;;;;;1.85;1.75;;;;;;;19.56;52.36;101829.72;1663163;86;21051;-50
2021/06/04 01:32:43;;;;;;;2.50;1.92;;;;;;;19.54;52.35;101830.25;1661569;86;21092;-50
2021/06/04 01:35:18;;;;;;;1.98;1.85;;;;;;;19.49;52.59;101829.95;1671915;85;21545;-49
2021/06/04 01:37:45;;;;;;;2.25;2.00;;;;;;;19.47;52.80;101829.16;1675282;85;21123;-50
2021/06/04 01:40:29;;;;;;;2.55;2.00;;;;;;;19.45;52.80;101829.68;1609617;88;22361;-50
2021/06/04 01:43:02;;;;;;;4.33;3.35;;;;;;;19.44;52.86;101838.98;1632672;86;21100;-49
2021/06/04 01:45:33;;;;;;;2.42;2.05;;;;;;;19.43;52.92;101832.01;1672856;85;21598;-50
2021/06/04 01:48:18;;;;;;;5.70;2.22;;;;;;;19.43;52.95;101834.16;1670428;85;21608;-49
2021/06/04 01:50:59;;;;;;;3.37;2.12;;;;;;;19.43;53.07;101835.48;1671631;85;21635;-50
2021/06/04 01:53:33;;;;;;;2.25;1.95;;;;;;;19.43;53.31;101837.29;1644720;86;21094;-50
2021/06/04 01:56:06;;;;;;;2.25;1.80;;;;;;;19.43;53.44;101839.44;1639622;86;21033;-49
2021/06/04 01:58:45;;;;;;;3.55;2.10;;;;;;;19.45;53.44;101840.23;1699810;83;21073;-50
2021/06/04 02:01:18;;;;;;;2.20;1.87;;;;;;;19.47;53.42;101842.35;1723253;83;21506;-50
2021/06/04 02:03:45;;;;;;;3.83;1.92;;;;;;;19.48;53.35;101845.41;1727863;80;21038;-50
2021/06/04 02:06:14;;;;;;;3.08;1.90;;;;;;;19.51;53.42;101847.52;1774708;80;21018;-50
2021/06/04 02:08:46;;;;;;;2.90;1.70;;;;;;;19.51;53.60;101847.52;1771967;80;21030;-50
2021/06/04 02:11:19;;;;;;;3.37;2.22;;;;;;;19.51;53.68;101844.88;1767594;80;22648;-50
2021/06/04 02:13:48;;;;;;;;;;;;;;;19.50;53.84;101844.02;1740514;81;21039;-49
2021/06/04 02:16:22;;;;;;;4.97;1.95;;;;;;;19.49;54.11;101848.42;1765550;81;20424;-49
2021/06/04 02:19:26;;;;;;;5.40;2.25;;;;;;;19.51;54.35;101848.84;1766844;81;21027;-49
2021/06/04 02:22:08;;;;;;;3.12;1.92;;;;;;;19.54;54.21;101844.77;1759405;80;20995;-50
2021/06/04 02:25:11;;;;;;;3.05;2.05;;;;;;;19.52;54.13;101849.22;1763826;81;21050;-50
2021/06/04 02:27:44;;;;;;;4.33;1.87;;;;;;;19.51;54.25;101852.80;1754039;81;21030;-50
2021/06/04 02:30:32;;;;;;;4.47;2.02;;;;;;;19.52;54.43;101859.33;1735213;81;21041;-49
2021/06/04 02:33:13;;;;;;;2.98;2.20;;;;;;;19.53;54.44;101858.88;1707051;83;21046;-49
2021/06/04 02:35:50;;;;;;;2.20;2.00;;;;;;;19.56;54.46;101857.44;1686750;85;21569;-50
2021/06/04 02:38:35;;;;;;;2.25;2.00;;;;;;;19.56;54.59;101859.59;1683424;85;21010;-50
2021/06/04 02:41:17;;;;;;;5.37;2.52;;;;;;;19.58;54.71;101859.07;1704591;83;21046;-50
2021/06/04 02:43:51;;;;;;;3.25;2.12;;;;;;;19.56;54.76;101859.59;1592824;89;21070;-50
2021/06/04 02:46:29;;;;;;;3.20;2.40;;;;;;;19.56;54.89;101858.77;1566769;91;21073;-50
2021/06/04 02:48:57;;;;;;;2.87;2.30;;;;;;;19.57;54.92;101856.05;1540055;92;21137;-49
2021/06/04 02:51:33;;;;;;;5.58;2.25;;;;;;;19.56;54.99;101856.13;1573142;90;21131;-48
2021/06/04 02:54:07;;;;;;;3.77;2.60;;;;;;;19.56;55.01;101854.80;1571299;91;21137;-48
2021/06/04 02:56:49;;;;;;;3.30;2.10;;;;;;;19.56;54.94;101858.77;1490379;95;21087;-49
2021/06/04 02:59:26;;;;;;;2.40;2.20;;;;;;;19.53;55.06;101853.14;1490451;95;21582;-50
2021/06/04 03:01:58;;;;;;;5.10;2.00;;;;;;;19.54;55.04;101851.37;1479792;96;21151;-50
2021/06/04 03:04:28;;;;;;;2.45;1.90;;;;;;;19.55;55.02;101860.99;1456184;98;22127;-49
2021/06/04 03:07:01;;;;;;;9.48;2.45;;;;;;;19.57;55.20;101865.74;1458436;98;21145;-49
2021/06/04 03:09:34;;;;;;;4.05;2.70;;;;;;;19.59;55.28;101869.18;1459382;98;21133;-48
2021/06/04 03:12:07;;;;;;;3.37;2.20;;;;;;;19.61;55.34;101867.34;1459767;98;21136;-48
2021/06/04 03:14:37;;;;;;;2.20;2.00;;;;;;;19.64;55.27;101872.50;1459108;96;21093;-49
2021/06/04 03:17:07;;;;;;;4.20;2.20;;;;;;;19.69;55.32;101870.52;1458699;98;21089;-49
2021/06/04 03:19:35;;;;;;;1.90;1.70;;;;;;;19.72;55.35;101870.40;1459337;98;21107;-49
2021/06/04 03:22:10;;;;;;;5.78;2.80;;;;;;;19.75;55.33;101874.22;1460343;98;21100;-49
2021/06/04 03:24:40;;;;;;;3.20;2.17;;;;;;;19.76;55.40;101874.63;1383304;102;21183;-48
2021/06/04 03:27:10;;;;;;;3.65;1.95;;;;;;;19.78;55.61;101871.46;1383178;103;21220;-49
2021/06/04 03:29:37;;;;;;;3.55;2.27;;;;;;;19.81;55.83;101875.27;1414565;100;21656;-48
2021/06/04 03:32:09;;;;;;;3.83;2.12;;;;;;;19.84;55.75;101876.03;1416545;100;21117;-49
2021/06/04 03:34:38;;;;;;;2.70;2.35;;;;;;;19.89;55.78;101873.16;1402524;100;21147;-49
2021/06/04 03:37:06;;;;;;;4.33;2.00;;;;;;;19.93;55.64;101869.47;1400838;101;21151;-49
2021/06/04 03:39:38;;;;;;;5.40;2.52;;;;;;;20.02;55.69;101871.73;1400967;102;21151;-50
2021/06/04 03:42:09;;;;;;;5.20;1.90;;;;;;;20.24;55.49;101867.25;1376202;103;21153;-49
2021/06/04 03:44:40;;;;;;;4.75;1.87;;;;;;;20.62;54.54;101870.37;1375007;103;21108;-49
2021/06/04 03:47:07;;;;;;;;;;;;;;;20.98;53.58;101864.69;1408696;99;21169;-50
2021/06/04 03:49:35;;;;;;;5.03;2.00;;;;;;;21.33;52.84;101868.81;1411725;101;20181;-50
2021/06/04 03:52:03;;;;;;;4.22;1.98;;;;;;;21.68;51.99;101871.87;1451537;98;21593;-49
2021/06/04 03:54:35;;;;;;;4.50;1.77;;;;;;;21.96;51.31;101872.24;1456591;98;21101;-49
2021/06/04 03:57:04;;;;;;;3.77;2.27;;;;;;;22.23;50.44;101874.80;1455664;98;21173;-49
2021/06/04 03:59:31;;;;;;;3.60;2.37;;;;;;;22.51;49.93;101872.84;1481704;96;21564;-50
2021/06/04 04:02:04;;;;;;;2.00;1.80;;;;;;;22.83;49.08;101865.84;1552471;91;21106;-49
2021/06/04 04:04:31;;;;;;;2.10;1.90;;;;;;;23.03;48.39;101861.59;1545946;92;21127;-49
2021/06/04 04:06:58;;;;;;;2.20;1.98;;;;;;;23.03;47.82;101871.75;1542630;92;21587;-50
2021/06/04 04:09:25;;;;;;;2.27;2.00;;;;;;;22.94;47.77;101872.72;1535897;93;21077;-50
2021/06/04 04:11:53;;;;;;;3.83;2.10;;;;;;;22.79;47.72;101869.60;1523412;93;21197;-49
2021/06/04 04:14:23;;;;;;;4.78;2.40;;;;;;;22.59;47.96;101871.53;1541318;92;21205;-50
2021/06/04 04:16:49;;;;;;;2.90;2.47;;;;;;;22.43;48.21;101869.29;1555220;92;21102;-50
2021/06/04 04:19:22;;;;;;;3.37;2.02;;;;;;;22.25;48.66;101867.61;1554288;92;21078;-50
2021/06/04 04:21:51;;;;;;;2.80;1.72;;;;;;;22.11;49.19;101871.46;1614199;87;21078;-49
2021/06/04 04:24:23;;;;;;;6.40;2.20;;;;;;;21.99;49.53;101866.77;1635684;87;21104;-50
2021/06/04 04:26:50;;;;;;;2.50;1.65;;;;;;;21.84;49.76;101867.57;1636678;87;21058;-48
2021/06/04 04:29:17;;;;;;;3.22;2.22;;;;;;;21.76;50.03;101872.38;1638309;87;21062;-49
2021/06/04 04:31:48;;;;;;;3.83;2.12;;;;;;;21.67;50.38;101874.14;1633771;87;21554;-50
2021/06/04 04:34:15;;;;;;;6.53;2.60;;;;;;;21.56;50.75;101865.41;1646174;86;21033;-49
2021/06/04 04:36:47;;;;;;;6.08;2.15;;;;;;;21.48;51.00;101866.25;1640132;86;21110;-50
2021/06/04 04:39:21;;;;;;;2.47;1.90;;;;;;;21.44;51.15;101862.50;1724346;80;21021;-49
2021/06/04 04:41:48;;;;;;;2.70;2.20;;;;;;;21.42;51.05;101859.07;1777919;80;20970;-49
2021/06/04 04:44:20;;;;;;;2.92;2.20;;;;;;;21.39;51.18;101863.21;1768701;80;21070;-49
2021/06/04 04:46:47;;;;;;;4.50;2.33;;;;;;;21.38;50.62;101860.16;1769505;80;21038;-49
2021/06/04 04:49:14;;;;;;;2.58;2.00;;;;;;;21.33;50.26;101867.48;1771490;80;21498;-50
2021/06/04 04:51:40;;;;;;;3.72;2.70;;;;;;;21.28;50.50;101857.56;1767075;80;21001;-49
2021/06/04 04:54:09;;;;;;;5.90;2.20;;;;;;;21.25;50.65;101860.34;1775250;80;20979;-49
2021/06/04 04:56:36;;;;;;;2.75;2.35;;;;;;;21.22;50.76;101867.13;1773016;80;21517;-49
2021/06/04 04:59:04;;;;;;;4.47;2.40;;;;;;;21.21;50.75;101869.38;1776669;80;21014;-49
2021/06/04 05:01:32;;;;;;;3.30;2.12;;;;;;;21.19;50.64;101868.13;1769862;80;21030;-49
2021/06/04 05:03:59;;;;;;;3.70;2.20;;;;;;;21.19;50.56;101875.20;1770432;80;21081;-49
2021/06/04 05:06:26;;;;;;;4.20;2.52;;;;;;;21.21;50.56;101874.66;1772829;80;20975;-49
2021/06/04 05:08:54;;;;;;;3.75;2.22;;;;;;;21.25;50.34;101872.27;1769242;80;21062;-49
2021/06/04 05:11:22;;;;;;;3.62;2.37;;;;;;;21.32;50.26;101878.99;1768676;80;21031;-48
2021/06/04 05:13:49;;;;;;;7.58;2.67;;;;;;;21.40;50.06;101873.72;1765683;81;21050;-48
2021/06/04 05:16:17;;;;;;;7.05;2.62;;;;;;;21.48;49.77;101877.30;1770398;80;21015;-48
2021/06/04 05:18:46;;;;;;;6.42;2.65;;;;;;;21.57;49.86;101877.73;1769765;80;21070;-48
2021/06/04 05:21:14;;;;;;;3.15;2.35;;;;;;;21.67;49.57;101881.63;1771742;80;21003;-49
2021/06/04 05:23:41;;;;;;;2.45;2.02;;;;;;;21.75;49.56;101881.23;1764040;81;21059;-49
2021/06/04 05:26:08;;;;;;;2.90;2.60;;;;;;;21.81;49.46;101880.92;1765868;81;20979;-50
2021/06/04 05:28:35;;;;;;;6.83;2.70;;;;;;;21.83;49.42;101879.95;1773444;81;21058;-48
2021/06/04 05:31:05;;;;;;;3.72;2.52;;;;;;;21.87;49.29;101884.63;1768835;80;21491;-49
2021/06/04 05:33:36;;;;;;;3.60;2.23;;;;;;;21.93;48.84;101886.95;1774381;80;21050;-49
2021/06/04 05:36:06;;;;;;;2.72;2.45;;;;;;;21.97;48.48;101887.19;1764356;80;21058;-49
2021/06/04 05:38:33;;;;;;;4.80;2.95;;;;;;;22.01;48.08;101895.38;1763867;81;20999;-49
2021/06/04 05:41:00;;;;;;;3.62;2.37;;;;;;;22.04;47.83;101887.73;1759596;80;21047;-50
2021/06/04 05:43:31;;;;;;;6.00;2.65;;;;;;;22.10;47.48;101889.61;1760487;80;21038;-48
2021/06/04 05:45:58;;;;;;;4.67;2.50;;;;;;;22.16;47.53;101889.30;1762945;81;20998;-49
2021/06/04 05:48:25;;;;;;;2.95;2.75;;;;;;;22.21;47.74;101887.28;1761173;81;21535;-49
2021/06/04 05:50:56;;;;;;;4.47;2.83;;;;;;;22.28;47.56;101895.28;1762113;81;21051;-49
2021/06/04 05:53:27;;;;;;;4.75;2.70;;;;;;;22.33;47.56;101895.91;1757435;81;21039;-48
2021/06/04 05:55:55;;;;;;;4.60;2.53;;;;;;;22.40;47.82;101904.41;1756968;81;21745;-51
2021/06/04 05:58:22;;;;;;;3.37;2.60;;;;;;;22.44;47.62;101901.48;1762659;80;21077;-48
2021/06/04 06:00:54;;;;;;;2.85;2.55;;;;;;;22.49;47.66;101891.97;1772166;80;21535;-48
2021/06/04 06:03:25;;;;;;;2.62;2.42;;;;;;;22.54;47.53;101900.09;1768856;81;21038;-49
2021/06/04 06:05:52;;;;;;;4.07;2.70;;;;;;;22.63;47.66;101901.40;1761199;81;21010;-48
2021/06/04 06:08:18;;;;;;;5.58;2.60;;;;;;;22.77;47.51;101903.33;1761031;81;21003;-48
2021/06/04 06:10:45;;;;;;;5.80;2.40;;;;;;;22.92;47.35;101895.84;1761915;81;21030;-51
2021/06/04 06:13:12;;;;;;;3.83;2.87;;;;;;;23.14;46.98;101895.06;1771459;80;21568;-48
2021/06/04 06:15:39;;;;;;;9.05;3.37;;;;;;;23.42;46.77;101895.23;1773805;80;20967;-48
2021/06/04 06:18:07;;;;;;;3.22;2.80;;;;;;;23.74;46.07;101900.86;1777035;80;21022;-48
2021/06/04 06:20:39;;;;;;;4.58;3.52;;;;;;;24.03;45.49;101898.71;1786233;80;21014;-49
2021/06/04 06:23:06;;;;;;;7.15;2.67;;;;;;;24.23;44.98;101899.69;1786228;80;20967;-48
2021/06/04 06:25:39;;;;;;;6.15;2.95;;;;;;;24.35;44.82;101901.23;1770230;80;20983;-49
2021/06/04 06:28:08;;;;;;;2.50;2.30;;;;;;;24.38;44.72;101895.75;1782418;80;21014;-51
2021/06/04 06:30:35;;;;;;;4.53;2.80;;;;;;;24.35;44.44;101903.44;1784914;80;20983;-49
2021/06/04 06:33:01;;;;;;;4.12;2.67;;;;;;;24.30;44.46;101906.00;1770410;80;20982;-49
2021/06/04 06:35:36;;;;;;;3.10;2.70;;;;;;;24.19;44.62;101904.81;1770389;80;21019;-49
2021/06/04 06:38:05;;;;;;;4.28;2.52;;;;;;;24.06;44.91;101901.20;1769183;80;21037;-48
2021/06/04 06:40:33;;;;;;;3.90;3.08;;;;;;;23.95;45.28;101900.94;1786456;80;21061;-48
2021/06/04 06:42:59;;;;;;;8.93;2.83;;;;;;;23.86;45.46;101904.16;1773971;80;20959;-49
2021/06/04 06:45:27;;;;;;;5.55;2.90;;;;;;;23.78;45.45;101909.04;1775096;80;21034;-49
2021/06/04 06:47:54;;;;;;;5.62;2.90;;;;;;;23.72;45.85;101914.72;1778789;80;21486;-48
2021/06/04 06:50:24;;;;;;;4.05;2.92;;;;;;;23.66;46.11;101912.91;1778637;80;21022;-48
2021/06/04 06:52:51;;;;;;;4.78;2.75;;;;;;;23.61;46.34;101911.84;1771745;80;21030;-49
2021/06/04 06:55:19;;;;;;;4.72;3.10;;;;;;;23.56;46.56;101915.22;1768955;80;20979;-49
2021/06/04 06:57:45;;;;;;;3.80;2.60;;;;;;;23.54;46.95;101919.77;1782673;80;21549;-51
2021/06/04 07:00:19;;;;;;;7.17;3.17;;;;;;;23.57;47.37;101918.74;1769151;80;21074;-49
2021/06/04 07:02:46;;;;;;;4.65;2.77;;;;;;;23.70;47.40;101915.27;1770698;80;21046;-49
2021/06/04 07:05:15;;;;;;;3.12;2.77;;;;;;;23.92;46.95;101923.73;1769193;80;21046;-48
2021/06/04 07:07:42;;;;;;;3.60;2.45;;;;;;;24.22;46.17;101921.94;1772267;80;20979;-49
2021/06/04 07:10:12;;;;;;;5.30;2.33;;;;;;;24.48;45.88;101921.70;1778125;80;21002;-51
2021/06/04 07:12:41;;;;;;;6.47;4.00;;;;;;;24.67;45.68;101918.73;1778898;80;21506;-51
2021/06/04 07:15:12;;;;;;;7.85;3.40;;;;;;;24.79;44.97;101921.52;1774626;80;21026;-51
2021/06/04 07:17:39;;;;;;;5.92;3.05;;;;;;;24.87;44.80;101921.06;1747512;81;21561;-53
2021/06/04 07:20:09;;;;;;;6.17;2.72;;;;;;;24.95;44.83;101919.63;1745298;81;21025;-49
2021/06/04 07:22:35;;;;;;;4.30;2.60;;;;;;;25.04;44.83;101916.37;1752664;81;20986;-49
2021/06/04 07:25:06;;;;;;;5.20;2.60;;;;;;;25.12;44.89;101915.90;1743535;81;21021;-49
2021/06/04 07:27:33;;;;;;;5.77;2.60;;;;;;;25.17;44.36;101919.58;1728890;82;21368;-48
2021/06/04 07:30:00;;;;;;;6.67;2.72;;;;;;;25.15;43.93;101926.81;1727495;82;20977;-49
2021/06/04 07:32:28;;;;;;;6.05;2.85;;;;;;;25.06;43.95;101922.92;1731844;82;21050;-49
2021/06/04 07:34:54;;;;;;;5.65;2.55;;;;;;;24.99;44.09;101925.61;1727758;82;21025;-49
2021/06/04 07:37:21;;;;;;;3.60;2.27;;;;;;;24.93;44.29;101926.00;1729331;82;20993;-48
2021/06/04 07:39:49;;;;;;;2.77;2.40;;;;;;;24.89;44.34;101923.98;1730218;82;21032;-49
2021/06/04 07:42:16;;;;;;;5.37;2.67;;;;;;;24.88;43.99;101928.08;1731005;82;20989;-49
2021/06/04 07:44:44;;;;;;;8.50;3.55;;;;;;;24.83;43.77;101925.70;1730533;82;21519;-49
2021/06/04 07:47:13;;;;;;;7.03;2.87;;;;;;;24.77;43.20;101923.92;1729921;82;21054;-49
2021/06/04 07:49:41;;;;;;;5.08;2.52;;;;;;;24.69;43.20;101925.67;1729783;82;21487;-49
2021/06/04 07:52:08;;;;;;;2.40;2.20;;;;;;;24.62;43.35;101931.48;1727479;82;21088;-50
2021/06/04 07:54:35;;;;;;;4.90;2.70;;;;;;;24.55;43.18;101934.13;1727899;82;21566;-49
2021/06/04 07:57:03;;;;;;;12.75;2.85;;;;;;;24.47;43.72;101935.08;1731873;82;21039;-49
2021/06/04 07:59:30;;;;;;;4.00;2.60;;;;;;;24.39;44.03;101934.22;1738630;82;21015;-49
2021/06/04 08:01:58;;;;;;;4.60;2.70;;;;;;;24.33;44.66;101935.06;1729281;82;21031;-49
2021/06/04 08:04:25;;;;;;;2.62;2.30;;;;;;;24.23;45.01;101935.59;1727680;82;21032;-50
2021/06/04 08:06:52;;;;;;;4.42;2.42;;;;;;;24.17;45.21;101935.14;1727505;82;21582;-49
2021/06/04 08:09:20;;;;;;;4.17;2.60;;;;;;;24.14;45.33;101939.30;1732448;82;21003;-49
2021/06/04 08:12:00;;;;;;;3.27;2.42;;;;;;;24.14;45.39;101933.97;1717610;82;21094;-50
2021/06/04 08:14:27;;;;;;;2.75;2.40;;;;;;;24.14;44.79;101933.51;1705822;83;21045;-50
2021/06/04 08:16:57;;;;;;;6.47;2.50;;;;;;;24.15;44.51;101931.72;1716604;83;21109;-49
2021/06/04 08:19:24;;;;;;;2.42;2.10;;;;;;;24.16;44.33;101936.94;1716135;83;21114;-50
2021/06/04 08:21:53;;;;;;;3.58;2.00;;;;;;;24.16;44.54;101934.27;1693441;84;21061;-50
2021/06/04 08:24:24;;;;;;;2.60;2.15;;;;;;;24.18;44.10;101935.03;1714278;82;20990;-50
2021/06/04 08:26:51;;;;;;;;;;;;;;;24.18;44.48;101935.03;1747945;82;21002;-49
2021/06/04 08:29:18;;;;;;;2.62;2.15;;;;;;;24.20;44.49;101935.80;1749896;82;20091;-49
2021/06/04 08:31:45;;;;;;;8.23;2.25;;;;;;;24.22;44.88;101939.23;1741621;82;21495;-50
2021/06/04 08:34:11;;;;;;;3.62;2.33;;;;;;;24.23;44.96;101942.25;1744166;82;21046;-49
2021/06/04 08:36:42;;;;;;;2.12;1.98;;;;;;;24.25;45.11;101939.02;1740469;81;21528;-50
2021/06/04 08:39:15;;;;;;;2.77;2.20;;;;;;;24.28;45.43;101939.82;1746502;82;20971;-50
2021/06/04 08:42:28;;;;;;;3.37;2.58;;;;;;;24.32;45.57;101947.50;1638910;86;21094;-51
2021/06/04 08:45:32;;;;;;;5.78;2.12;;;;;;;24.36;45.49;101938.38;1638832;87;21078;-50
2021/06/04 08:48:17;;;;;;;2.85;2.50;;;;;;;24.39;44.94;101940.01;1633066;87;21645;-49
2021/06/04 08:51:14;;;;;;;2.42;2.02;;;;;;;24.45;44.30;101938.30;1630005;87;21518;-50
2021/06/04 08:53:59;;;;;;;3.12;2.15;;;;;;;24.53;43.91;101942.68;1639181;87;21010;-50
2021/06/04 08:56:35;;;;;;;6.25;2.22;;;;;;;24.60;43.84;101936.05;1635271;87;21074;-49
2021/06/04 08:59:09;;;;;;;4.80;2.10;;;;;;;24.66;44.28;101938.33;1635087;87;21058;-49
2021/06/04 09:01:54;;;;;;;4.33;2.90;;;;;;;24.72;44.75;101939.28;1635711;87;21053;-49
2021/06/04 09:04:34;;;;;;;4.33;2.47;;;;;;;24.74;44.83;101936.95;1644900;87;21090;-50
2021/06/04 09:07:31;;;;;;;5.60;2.50;;;;;;;24.74;44.03;101930.75;1633471;87;21042;-50
2021/06/04 09:10:10;;;;;;;15.75;6.60;;;;;;;24.75;43.74;101934.64;1605253;87;21111;-49
2021/06/04 09:12:55;;;;;;;4.10;2.52;;;;;;;24.75;44.05;101933.81;1601634;88;21078;-49
2021/06/04 09:15:26;;;;;;;5.45;2.40;;;;;;;24.76;43.37;101936.84;1588879;88;21606;-50
2021/06/04 09:18:06;;;;;;;4.28;2.45;;;;;;;24.73;41.63;101929.03;1592650;88;21571;-49
2021/06/04 09:20:51;;;;;;;6.37;2.17;;;;;;;24.71;41.61;101934.42;1592839;88;21071;-50
2021/06/04 09:23:23;;;;;;;4.00;2.35;;;;;;;24.68;41.78;101936.43;1593648;88;21611;-51
2021/06/04 09:25:50;;;;;;;3.62;2.25;;;;;;;24.60;41.57;101934.72;1589168;88;21121;-50
2021/06/04 09:28:21;;;;;;;3.55;2.05;;;;;;;24.54;41.07;101937.76;1594458;90;21106;-49
2021/06/04 09:30:51;;;;;;;3.05;2.08;;;;;;;24.46;41.05;101938.70;1594314;88;21558;-50
2021/06/04 09:33:29;;;;;;;4.97;1.80;;;;;;;24.39;40.76;101936.02;1594349;88;21170;-50
2021/06/04 09:36:14;;;;;;;2.80;1.90;;;;;;;24.32;39.78;101942.67;1586764;88;21115;-49
2021/06/04 09:38:49;;;;;;;6.12;2.08;;;;;;;24.25;38.71;101943.02;1566870;88;21008;-50
2021/06/04 09:41:21;;;;;;;5.03;1.80;;;;;;;24.20;39.09;101946.44;1612260;88;21045;-49
2021/06/04 09:43:50;;;;;;;5.35;2.22;;;;;;;24.14;39.21;101941.48;1607255;88;21048;-49
2021/06/04 09:46:34;;;;;;;3.55;2.40;;;;;;;24.11;39.49;101947.47;1611070;87;21076;-49
2021/06/04 09:49:01;;;;;;;3.35;2.35;;;;;;;24.09;39.97;101948.87;1628777;87;21093;-49
2021/06/04 09:51:39;;;;;;;14.95;8.05;;;;;;;24.08;39.75;101947.17;1630183;87;21033;-51
2021/06/04 09:54:28;;;;;;;12.05;8.65;;;;;;;24.06;40.19;101953.05;1660688;86;21058;-49
2021/06/04 09:57:18;;;;;;;8.05;4.25;;;;;;;24.05;40.43;101952.66;1651678;86;21573;-49
2021/06/04 09:59:44;;;;;;;4.12;2.55;;;;;;;24.05;40.38;101952.66;1605511;89;21061;-50
2021/06/04 10:02:35;;;;;;;3.20;1.82;;;;;;;24.06;40.41;101951.72;1597730;89;21561;-49
2021/06/04 10:05:29;;;;;;;2.15;1.82;;;;;;;24.08;40.46;101955.15;1606610;89;21090;-50
2021/06/04 10:08:12;;;;;;;3.52;2.30;;;;;;;24.09;40.51;101951.53;1597341;89;21036;-50
2021/06/04 10:10:41;;;;;;;2.15;1.90;;;;;;;24.10;40.53;101951.92;1527270;92;21152;-49
2021/06/04 10:13:34;;;;;;;5.97;1.60;;;;;;;24.14;40.88;101952.59;1527436;92;21112;-48
2021/06/04 10:16:03;;;;;;;2.20;1.55;;;;;;;24.17;39.03;101949.27;1502626;95;21144;-48
2021/06/04 10:18:37;;;;;;;3.10;1.32;;;;;;;24.20;39.44;101948.23;1481090;96;21070;-49
2021/06/04 10:21:27;;;;;;;1.92;1.55;;;;;;;24.24;39.51;101953.29;1507779;95;21584;-50
2021/06/04 10:23:57;;;;;;;2.98;1.50;;;;;;;24.31;39.69;101949.80;1480480;96;21163;-51
2021/06/04 10:26:31;;;;;;;1.60;1.47;;;;;;;24.36;39.87;101960.16;1500525;95;21612;-51
2021/06/04 10:29:10;;;;;;;2.55;1.50;;;;;;;24.39;40.37;101955.97;1481293;96;21093;-50
2021/06/04 10:32:09;;;;;;;3.30;1.70;;;;;;;24.42;40.26;101959.80;1507863;95;21188;-50
2021/06/04 10:35:02;;;;;;;3.83;1.85;;;;;;;24.39;40.45;101955.97;1469539;96;21574;-51
2021/06/04 10:37:41;;;;;;;2.80;1.52;;;;;;;24.37;40.63;101953.88;1510518;94;21605;-50
2021/06/04 10:40:31;;;;;;;2.35;1.70;;;;;;;24.36;40.64;101953.02;1507926;94;21089;-49
2021/06/04 10:43:18;;;;;;;3.02;1.50;;;;;;;24.32;40.84;101954.64;1498363;93;21644;-49
2021/06/04 10:46:22;;;;;;;3.47;1.80;;;;;;;24.24;40.72;101949.30;1510103;94;21569;-49
2021/06/04 10:49:18;;;;;;;4.08;2.30;;;;;;;24.18;40.87;101957.64;1595800;88;21095;-49
2021/06/04 10:51:57;;;;;;;5.62;2.98;;;;;;;24.11;40.44;101952.30;1612202;88;21082;-49
2021/06/04 10:54:39;;;;;;;5.28;3.52;;;;;;;24.08;40.61;101959.61;1618890;89;21540;-50
2021/06/04 10:57:12;;;;;;;12.88;7.37;;;;;;;24.04;40.68;101952.29;1658145;86;21038;-49
2021/06/04 11:00:04;;;;;;;15.90;7.85;;;;;;;24.01;40.21;101956.41;1647648;85;21053;-48
2021/06/04 11:02:45;;;;;;;15.25;7.67;;;;;;;23.98;39.53;101953.95;1668979;85;21121;-49
2021/06/04 11:05:55;;;;;;;10.50;6.67;;;;;;;23.96;39.54;101959.83;1649352;86;21069;-49
2021/06/04 11:08:48;;;;;;;5.50;3.77;;;;;;;23.95;40.10;101955.44;1603512;88;21155;-49
2021/06/04 11:11:36;;;;;;;4.20;2.40;;;;;;;23.98;40.72;101959.27;1526389;93;22359;-48
2021/06/04 11:14:33;;;;;;;7.53;3.85;;;;;;;24.00;40.86;101963.16;1535615;93;21148;-49
2021/06/04 11:17:25;;;;;;;10.43;5.08;;;;;;;24.03;41.23;101959.87;1506682;94;21102;-49
2021/06/04 11:20:11;;;;;;;5.75;3.70;;;;;;;24.08;41.89;101959.61;1536593;93;21101;-50
2021/06/04 11:22:52;;;;;;;4.03;2.20;;;;;;;24.12;42.16;101954.02;1502328;95;21120;-50
2021/06/04 11:25:45;;;;;;;6.20;2.47;;;;;;;24.16;41.77;101955.55;1531731;93;21164;-50
2021/06/04 11:28:36;;;;;;;4.95;2.77;;;;;;;24.17;41.50;101954.59;1506711;95;21099;-49
2021/06/04 11:31:08;;;;;;;4.08;2.80;;;;;;;24.19;41.38;101958.01;1536241;93;21132;-49
2021/06/04 11:33:37;;;;;;;8.15;3.17;;;;;;;24.21;40.98;101956.11;1540493;92;21115;-49
2021/06/04 11:36:24;;;;;;;3.20;2.30;;;;;;;24.24;41.29;101949.77;1561541;90;21136;-49
2021/06/04 11:39:07;;;;;;;4.75;2.40;;;;;;;24.27;41.48;101952.25;1561231;91;21092;-49
2021/06/04 11:41:52;;;;;;;5.22;2.15;;;;;;;24.33;41.84;101956.34;1528378;93;21161;-49
2021/06/04 11:44:34;;;;;;;7.53;2.60;;;;;;;24.38;42.02;101951.11;1540483;91;21055;-49
2021/06/04 11:47:21;;;;;;;5.40;2.10;;;;;;;24.44;41.75;101951.24;1576828;90;21109;-48
2021/06/04 11:50:06;;;;;;;3.72;1.57;;;;;;;24.48;41.34;101947.45;1657519;86;21058;-50
2021/06/04 11:52:41;;;;;;;2.33;1.55;;;;;;;24.50;41.23;101956.19;1663030;86;21098;-49
2021/06/04 11:55:29;;;;;;;4.28;1.47;;;;;;;24.51;41.19;101952.56;1662767;86;21074;-49